Time;durP1;ratioP1;P1;durP2;ratioP2;P2;SDS_P1;SDS_P2;PMS_P1;PMS_P2;Temp;Humidity;BMP_temperature;BMP_pressure;BME280_temperature;BME280_humidity;BME280_pressure;Samples;Min_cycle;Max_cycle;Signal;HPM_P1;HPM_P2
2024/01/04 00:00:01;;;;;;;7.57;1.75;;;;;;;;;;4921191;29;20051;-82
2024/01/04 00:02:33;;;;;;;4.88;1.30;;;;;;;;;;4938284;29;20171;-83
2024/01/04 00:05:03;;;;;;;6.55;1.77;;;;;;;;;;4936605;29;20070;-82
2024/01/04 00:07:34;;;;;;;5.80;1.63;;;;;;;;;;4937792;29;20469;-82
2024/01/04 00:10:06;;;;;;;3.87;1.47;;;;;;;;;;4849023;29;3097916;-82
2024/01/04 00:12:37;;;;;;;8.05;1.42;;;;;;;;;;4938983;29;20370;-82
2024/01/04 00:15:08;;;;;;;3.63;1.33;;;;;;;;;;4938785;29;20047;-84
2024/01/04 00:17:39;;;;;;;5.72;1.48;;;;;;;;;;4937971;29;20051;-84
2024/01/04 00:20:10;;;;;;;5.57;1.48;;;;;;;;;;4938317;29;20047;-81
2024/01/04 00:22:41;;;;;;;4.70;1.63;;;;;;;;;;4954806;29;20047;-80
2024/01/04 00:25:12;;;;;;;7.80;1.50;;;;;;;;;;4936994;29;20069;-82
2024/01/04 00:27:44;;;;;;;6.70;1.65;;;;;;;;;;4939948;28;20050;-82
2024/01/04 00:30:14;;;;;;;4.25;1.70;;;;;;;;;;4937066;29;20954;-82
2024/01/04 00:32:45;;;;;;;3.47;1.73;;;;;;;;;;4975458;28;21024;-82
2024/01/04 00:35:16;;;;;;;6.57;1.70;;;;;;;;;;4947139;28;20053;-82
2024/01/04 00:37:47;;;;;;;4.32;1.70;;;;;;;;;;4975906;28;20050;-83
2024/01/04 00:40:18;;;;;;;6.03;1.90;;;;;;;;;;4946443;28;20042;-82
2024/01/04 00:42:50;;;;;;;7.45;1.92;;;;;;;;;;4971409;28;20058;-81
2024/01/04 00:45:22;;;;;;;3.67;1.80;;;;;;;;;;4950732;28;20047;-81
2024/01/04 00:47:52;;;;;;;7.80;1.90;;;;;;;;;;4963676;28;20497;-81
2024/01/04 00:50:22;;;;;;;6.07;2.10;;;;;;;;;;4961134;28;20386;-82
2024/01/04 00:52:52;;;;;;;6.25;1.88;;;;;;;;;;4945650;28;20042;-82
2024/01/04 00:55:34;;;;;;;7.40;1.90;;;;;;;;;;4933779;28;20042;-81
2024/01/04 00:58:05;;;;;;;5.10;2.42;;;;;;;;;;4964794;28;20055;-82
2024/01/04 01:00:36;;;;;;;12.68;2.40;;;;;;;;;;4964498;28;20053;-81
2024/01/04 01:03:07;;;;;;;5.45;2.10;;;;;;;;;;4940398;28;20101;-81
2024/01/04 01:05:38;;;;;;;5.32;2.08;;;;;;;;;;4956020;28;20038;-82
2024/01/04 01:08:11;;;;;;;8.18;1.95;;;;;;;;;;4956996;28;20513;-82
2024/01/04 01:10:41;;;;;;;4.10;1.70;;;;;;;;;;4941484;28;20733;-82
2024/01/04 01:13:11;;;;;;;6.55;1.80;;;;;;;;;;4940252;28;20362;-83
2024/01/04 01:15:41;;;;;;;9.82;2.05;;;;;;;;;;4971613;28;20051;-81
2024/01/04 01:18:11;;;;;;;4.00;1.73;;;;;;;;;;4938323;29;20058;-82
2024/01/04 01:20:41;;;;;;;4.97;1.80;;;;;;;;;;4937963;29;20051;-82
2024/01/04 01:23:11;;;;;;;5.38;1.98;;;;;;;;;;4956914;28;20477;-82
2024/01/04 01:25:42;;;;;;;3.78;1.75;;;;;;;;;;4944543;28;20047;-82
2024/01/04 01:28:12;;;;;;;3.17;1.60;;;;;;;;;;4940352;28;20055;-82
2024/01/04 01:30:45;;;;;;;6.03;1.98;;;;;;;;;;4964954;28;20039;-82
2024/01/04 01:33:16;;;;;;;7.95;1.80;;;;;;;;;;4971832;28;20476;-82
2024/01/04 01:35:46;;;;;;;6.38;1.83;;;;;;;;;;4968484;28;20050;-82
2024/01/04 01:38:17;;;;;;;3.65;1.90;;;;;;;;;;4957792;28;20050;-82
2024/01/04 01:40:47;;;;;;;4.80;1.67;;;;;;;;;;4960439;28;20047;-82
2024/01/04 01:43:17;;;;;;;7.07;2.35;;;;;;;;;;4957565;28;20397;-82
2024/01/04 01:45:48;;;;;;;6.47;1.83;;;;;;;;;;4959842;28;20359;-82
2024/01/04 01:48:19;;;;;;;5.43;1.95;;;;;;;;;;4958512;28;20371;-82
2024/01/04 01:50:52;;;;;;;4.63;1.70;;;;;;;;;;4976684;28;20111;-83
2024/01/04 01:53:24;;;;;;;9.32;2.03;;;;;;;;;;4956109;28;20050;-82
2024/01/04 01:55:55;;;;;;;5.13;2.22;;;;;;;;;;4976725;28;20482;-82
2024/01/04 01:58:25;;;;;;;7.32;1.83;;;;;;;;;;4958784;28;20062;-82
2024/01/04 02:00:57;;;;;;;3.42;2.22;;;;;;;;;;4958594;28;20161;-81
2024/01/04 02:03:27;;;;;;;6.22;1.98;;;;;;;;;;4976378;28;20043;-82
2024/01/04 02:05:57;;;;;;;5.63;1.83;;;;;;;;;;4943057;28;20055;-81
2024/01/04 02:08:28;;;;;;;4.50;1.98;;;;;;;;;;4976162;28;20051;-82
2024/01/04 02:10:58;;;;;;;4.95;2.05;;;;;;;;;;4959358;28;20046;-82
2024/01/04 02:13:29;;;;;;;6.03;2.00;;;;;;;;;;4959582;28;20458;-82
2024/01/04 02:15:59;;;;;;;5.13;1.90;;;;;;;;;;4942996;28;20054;-82
2024/01/04 02:18:31;;;;;;;8.13;2.03;;;;;;;;;;4958616;28;20047;-83
2024/01/04 02:21:05;;;;;;;7.97;2.28;;;;;;;;;;4958853;28;20055;-82
2024/01/04 02:23:38;;;;;;;;;;;;;;;;;;4976764;28;20360;-83
2024/01/04 02:26:09;;;;;;;12.25;2.38;;;;;;;;;;4958788;28;19918;-82
2024/01/04 02:28:39;;;;;;;4.68;1.80;;;;;;;;;;4976434;28;20050;-82
2024/01/04 02:31:09;;;;;;;4.53;2.00;;;;;;;;;;4958039;28;20054;-82
2024/01/04 02:33:39;;;;;;;8.65;2.33;;;;;;;;;;4942561;28;20042;-82
2024/01/04 02:36:09;;;;;;;6.35;1.90;;;;;;;;;;4959117;28;20046;-82
2024/01/04 02:38:39;;;;;;;5.47;1.90;;;;;;;;;;4942539;28;20042;-82
2024/01/04 02:41:10;;;;;;;5.35;2.00;;;;;;;;;;4958027;28;20042;-82
2024/01/04 02:43:41;;;;;;;7.43;2.22;;;;;;;;;;4958690;28;20051;-82
2024/01/04 02:46:11;;;;;;;4.45;2.10;;;;;;;;;;4975904;28;20463;-82
2024/01/04 02:48:42;;;;;;;4.63;2.00;;;;;;;;;;4975568;28;20042;-82
2024/01/04 02:51:12;;;;;;;6.25;2.35;;;;;;;;;;4975446;28;20042;-82
2024/01/04 02:53:42;;;;;;;6.15;2.15;;;;;;;;;;4975408;28;20035;-82
2024/01/04 02:56:12;;;;;;;5.43;2.03;;;;;;;;;;4957529;28;20413;-82
2024/01/04 02:58:45;;;;;;;6.80;2.10;;;;;;;;;;4958890;28;20042;-82
2024/01/04 03:01:19;;;;;;;4.03;2.00;;;;;;;;;;4957674;28;20043;-82
2024/01/04 03:03:51;;;;;;;7.80;2.20;;;;;;;;;;4958080;28;20047;-82
2024/01/04 03:06:27;;;;;;;7.45;2.00;;;;;;;;;;4942126;28;20046;-82
2024/01/04 03:08:57;;;;;;;7.65;2.25;;;;;;;;;;4957477;28;20058;-82
2024/01/04 03:11:28;;;;;;;6.38;2.17;;;;;;;;;;4956890;28;20054;-83
2024/01/04 03:13:59;;;;;;;5.72;2.00;;;;;;;;;;4975235;28;20037;-83
2024/01/04 03:16:31;;;;;;;6.47;2.10;;;;;;;;;;4957018;28;20043;-83
2024/01/04 03:19:03;;;;;;;3.75;1.98;;;;;;;;;;4958598;28;20531;-82
2024/01/04 03:21:33;;;;;;;6.75;2.28;;;;;;;;;;4957373;28;20054;-82
2024/01/04 03:24:04;;;;;;;5.55;2.10;;;;;;;;;;4942433;28;20054;-83
2024/01/04 03:26:36;;;;;;;5.10;1.88;;;;;;;;;;4957167;28;20051;-82
2024/01/04 03:29:07;;;;;;;7.53;2.00;;;;;;;;;;4957244;28;20046;-83
2024/01/04 03:31:38;;;;;;;6.03;2.58;;;;;;;;;;4957739;28;20382;-82
2024/01/04 03:34:08;;;;;;;8.98;2.08;;;;;;;;;;4975053;28;20046;-82
2024/01/04 03:36:40;;;;;;;6.70;2.22;;;;;;;;;;4974815;28;20111;-82
2024/01/04 03:39:11;;;;;;;6.55;2.45;;;;;;;;;;4956423;28;20051;-82
2024/01/04 03:41:43;;;;;;;5.80;2.60;;;;;;;;;;4941658;28;20354;-82
2024/01/04 03:44:13;;;;;;;8.20;2.22;;;;;;;;;;4940990;28;20081;-82
2024/01/04 03:46:43;;;;;;;5.72;2.40;;;;;;;;;;4974701;28;20043;-82
2024/01/04 03:49:14;;;;;;;7.60;2.55;;;;;;;;;;4956670;28;20419;-82
2024/01/04 03:51:44;;;;;;;8.30;2.30;;;;;;;;;;4957426;28;20047;-82
2024/01/04 03:54:14;;;;;;;7.13;2.13;;;;;;;;;;4957682;28;20046;-82
2024/01/04 03:56:44;;;;;;;11.43;3.88;;;;;;;;;;4958096;28;20359;-83
2024/01/04 03:59:15;;;;;;;7.63;2.70;;;;;;;;;;4958397;28;20047;-82
2024/01/04 04:01:46;;;;;;;12.38;2.55;;;;;;;;;;4956787;28;20057;-83
2024/01/04 04:04:17;;;;;;;6.32;2.80;;;;;;;;;;4955520;28;20058;-82
2024/01/04 04:06:47;;;;;;;8.43;2.45;;;;;;;;;;4956441;28;20046;-82
2024/01/04 04:09:18;;;;;;;7.90;2.83;;;;;;;;;;4974095;28;20054;-82
2024/01/04 04:11:49;;;;;;;7.72;2.50;;;;;;;;;;4957139;28;20466;-82
2024/01/04 04:14:20;;;;;;;7.80;2.83;;;;;;;;;;4974425;28;20411;-83
2024/01/04 04:16:51;;;;;;;7.03;2.58;;;;;;;;;;4956529;28;20123;-82
2024/01/04 04:19:21;;;;;;;9.30;3.33;;;;;;;;;;4956222;28;20490;-82
2024/01/04 04:21:52;;;;;;;6.57;2.78;;;;;;;;;;4956935;28;20051;-82
2024/01/04 04:24:24;;;;;;;12.70;3.45;;;;;;;;;;4941049;28;20050;-82
2024/01/04 04:26:54;;;;;;;5.95;2.55;;;;;;;;;;4956928;28;20053;-81
2024/01/04 04:29:24;;;;;;;5.80;2.50;;;;;;;;;;4957101;28;20047;-82
2024/01/04 04:31:55;;;;;;;7.47;2.92;;;;;;;;;;4956970;28;20051;-81
2024/01/04 04:34:25;;;;;;;7.53;2.50;;;;;;;;;;4974339;28;20053;-81
2024/01/04 04:36:57;;;;;;;10.40;2.65;;;;;;;;;;4955889;28;20046;-82
2024/01/04 04:39:27;;;;;;;10.45;3.30;;;;;;;;;;4940843;28;20062;-82
2024/01/04 04:41:58;;;;;;;7.18;2.80;;;;;;;;;;4957013;28;20481;-82
2024/01/04 04:44:29;;;;;;;10.35;3.47;;;;;;;;;;4974084;28;20389;-82
2024/01/04 04:47:00;;;;;;;7.78;3.10;;;;;;;;;;4957283;28;20038;-82
2024/01/04 04:49:30;;;;;;;5.53;2.60;;;;;;;;;;4955694;28;20055;-82
2024/01/04 04:52:00;;;;;;;9.43;2.65;;;;;;;;;;4957331;28;20043;-82
2024/01/04 04:54:31;;;;;;;7.47;2.70;;;;;;;;;;4957812;28;20043;-82
2024/01/04 04:57:03;;;;;;;8.48;2.60;;;;;;;;;;4957590;28;20046;-82
2024/01/04 04:59:34;;;;;;;9.38;2.70;;;;;;;;;;4956464;28;20063;-82
2024/01/04 05:02:04;;;;;;;11.60;3.55;;;;;;;;;;4957340;28;20039;-83
2024/01/04 05:04:35;;;;;;;9.85;2.80;;;;;;;;;;4940286;28;20073;-82
2024/01/04 05:07:09;;;;;;;7.97;2.75;;;;;;;;;;4956672;28;20047;-82
2024/01/04 05:09:40;;;;;;;10.13;3.10;;;;;;;;;;4956057;28;20051;-82
2024/01/04 05:12:10;;;;;;;15.05;3.25;;;;;;;;;;4955776;28;20053;-82
2024/01/04 05:14:41;;;;;;;10.95;2.80;;;;;;;;;;4973883;28;20054;-82
2024/01/04 05:17:13;;;;;;;10.50;3.28;;;;;;;;;;4977061;28;20039;-82
2024/01/04 05:19:45;;;;;;;6.57;2.30;;;;;;;;;;4977674;28;20485;-82
2024/01/04 05:22:14;;;;;;;;;;;;;;;;;;4944857;28;20042;-82
2024/01/04 05:24:44;;;;;;;6.00;2.28;;;;;;;;;;4977236;28;19918;-82
2024/01/04 05:27:15;;;;;;;5.30;2.53;;;;;;;;;;4977230;28;20350;-82
2024/01/04 05:29:47;;;;;;;5.80;2.50;;;;;;;;;;4977367;28;20039;-82
2024/01/04 05:32:20;;;;;;;7.50;2.42;;;;;;;;;;4977502;28;20055;-82
2024/01/04 05:34:51;;;;;;;8.95;2.75;;;;;;;;;;4959092;28;20047;-82
2024/01/04 05:37:20;;;;;;;8.43;2.10;;;;;;;;;;4943390;28;20054;-82
2024/01/04 05:39:51;;;;;;;6.10;2.05;;;;;;;;;;4977640;28;20050;-82
2024/01/04 05:42:21;;;;;;;6.93;2.15;;;;;;;;;;4960607;28;20461;-82
2024/01/04 05:44:52;;;;;;;5.90;1.98;;;;;;;;;;4976661;28;20038;-82
2024/01/04 05:47:23;;;;;;;4.50;2.00;;;;;;;;;;4943573;28;20050;-82
2024/01/04 05:49:53;;;;;;;5.72;2.35;;;;;;;;;;4959753;28;20047;-82
2024/01/04 05:52:24;;;;;;;7.80;2.33;;;;;;;;;;4959104;28;20470;-82
2024/01/04 05:54:55;;;;;;;5.00;2.05;;;;;;;;;;4959359;28;20050;-82
2024/01/04 05:57:29;;;;;;;8.32;2.08;;;;;;;;;;4959148;28;20054;-82
2024/01/04 05:59:59;;;;;;;10.05;2.40;;;;;;;;;;4958751;28;20054;-82
2024/01/04 06:02:32;;;;;;;9.38;2.35;;;;;;;;;;4978373;28;20047;-83
2024/01/04 06:05:03;;;;;;;7.63;2.38;;;;;;;;;;4959922;28;20038;-82
2024/01/04 06:07:33;;;;;;;4.68;2.10;;;;;;;;;;4958740;28;20058;-82
2024/01/04 06:10:04;;;;;;;7.63;2.40;;;;;;;;;;4942952;28;20055;-82
2024/01/04 06:12:36;;;;;;;9.30;2.30;;;;;;;;;;4976478;28;20039;-82
2024/01/04 06:15:07;;;;;;;4.68;1.95;;;;;;;;;;4944038;28;20047;-82
2024/01/04 06:17:38;;;;;;;7.28;2.42;;;;;;;;;;4944401;28;20045;-83
2024/01/04 06:20:10;;;;;;;4.97;2.10;;;;;;;;;;4976510;28;20113;-83
2024/01/04 06:22:43;;;;;;;9.57;3.28;;;;;;;;;;4943325;28;20058;-82
2024/01/04 06:25:14;;;;;;;9.27;2.35;;;;;;;;;;4976131;28;20046;-83
2024/01/04 06:27:45;;;;;;;6.85;2.50;;;;;;;;;;4958461;28;20363;-83
2024/01/04 06:30:16;;;;;;;6.38;2.30;;;;;;;;;;4942386;28;20062;-83
2024/01/04 06:32:53;;;;;;;4.72;2.28;;;;;;;;;;4976197;28;20031;-82
2024/01/04 06:35:24;;;;;;;8.68;2.40;;;;;;;;;;4942523;28;20042;-82
2024/01/04 06:37:54;;;;;;;5.95;2.35;;;;;;;;;;4959249;28;20051;-83
2024/01/04 06:40:24;;;;;;;5.95;2.40;;;;;;;;;;4957509;28;20055;-83
2024/01/04 06:42:55;;;;;;;6.18;2.53;;;;;;;;;;4958673;28;20378;-83
2024/01/04 06:45:26;;;;;;;6.57;2.60;;;;;;;;;;4957922;28;20051;-84
2024/01/04 06:47:56;;;;;;;8.50;2.58;;;;;;;;;;4941872;28;20054;-84
2024/01/04 06:50:28;;;;;;;6.45;2.90;;;;;;;;;;4942328;28;20047;-83
2024/01/04 06:52:58;;;;;;;9.13;2.65;;;;;;;;;;4975474;28;20489;-82
2024/01/04 06:55:28;;;;;;;6.32;2.80;;;;;;;;;;4958912;28;20061;-82
2024/01/04 06:57:58;;;;;;;7.20;2.63;;;;;;;;;;4958854;28;20401;-83
2024/01/04 07:00:29;;;;;;;7.55;2.78;;;;;;;;;;4958656;28;20051;-82
2024/01/04 07:02:59;;;;;;;8.60;2.38;;;;;;;;;;4957424;28;20058;-83
2024/01/04 07:05:30;;;;;;;9.52;2.70;;;;;;;;;;4975552;28;20042;-82
2024/01/04 07:08:00;;;;;;;5.72;2.55;;;;;;;;;;4975627;28;20046;-82
2024/01/04 07:10:30;;;;;;;7.53;2.95;;;;;;;;;;4975887;28;20054;-82
2024/01/04 07:13:00;;;;;;;10.30;2.60;;;;;;;;;;4975272;28;20043;-81
2024/01/04 07:15:30;;;;;;;6.07;2.80;;;;;;;;;;4942077;28;20497;-83
2024/01/04 07:18:02;;;;;;;5.68;2.40;;;;;;;;;;4974923;28;20050;-82
2024/01/04 07:20:33;;;;;;;11.73;3.42;;;;;;;;;;4957604;28;20051;-81
2024/01/04 07:23:03;;;;;;;7.63;2.60;;;;;;;;;;4974876;28;20043;-83
2024/01/04 07:25:34;;;;;;;9.70;2.58;;;;;;;;;;4941125;28;20051;-81
2024/01/04 07:28:05;;;;;;;7.93;2.60;;;;;;;;;;4957084;28;20043;-81
2024/01/04 07:30:35;;;;;;;5.93;2.45;;;;;;;;;;4958230;28;20051;-81
2024/01/04 07:33:06;;;;;;;5.40;2.10;;;;;;;;;;4941511;28;20066;-81
2024/01/04 07:35:38;;;;;;;7.03;2.65;;;;;;;;;;4957133;28;20482;-82
2024/01/04 07:38:09;;;;;;;9.23;2.45;;;;;;;;;;4975034;28;20043;-81
2024/01/04 07:40:39;;;;;;;7.50;2.55;;;;;;;;;;4975159;28;20046;-82
2024/01/04 07:43:11;;;;;;;4.93;2.55;;;;;;;;;;4974774;28;20047;-81
2024/01/04 07:45:42;;;;;;;7.90;2.30;;;;;;;;;;4975031;28;20054;-82
2024/01/04 07:48:12;;;;;;;7.07;2.58;;;;;;;;;;4957032;28;20381;-82
2024/01/04 07:50:43;;;;;;;5.90;2.50;;;;;;;;;;4958066;28;20046;-82
2024/01/04 07:53:14;;;;;;;4.57;2.40;;;;;;;;;;4956345;28;20054;-82
2024/01/04 07:55:45;;;;;;;6.05;2.40;;;;;;;;;;4956483;28;20054;-81
2024/01/04 07:58:15;;;;;;;7.00;2.65;;;;;;;;;;4974281;28;20054;-82
2024/01/04 08:00:45;;;;;;;5.88;2.45;;;;;;;;;;4975106;28;20043;-81
2024/01/04 08:03:15;;;;;;;9.57;2.60;;;;;;;;;;4974380;28;20038;-83
2024/01/04 08:05:45;;;;;;;5.70;2.42;;;;;;;;;;4956918;28;20051;-82
2024/01/04 08:08:16;;;;;;;5.40;2.40;;;;;;;;;;4980689;28;20046;-82
2024/01/04 08:10:47;;;;;;;5.13;2.30;;;;;;;;;;4950811;28;20382;-82
2024/01/04 08:13:18;;;;;;;6.25;2.50;;;;;;;;;;4950005;28;20061;-82
2024/01/04 08:15:50;;;;;;;9.75;2.60;;;;;;;;;;4942287;28;20054;-82
2024/01/04 08:18:21;;;;;;;11.45;2.65;;;;;;;;;;4956386;28;20050;-81
2024/01/04 08:20:52;;;;;;;6.20;2.22;;;;;;;;;;4957995;28;20043;-81
2024/01/04 08:23:23;;;;;;;6.30;2.30;;;;;;;;;;4974910;28;20031;-81
2024/01/04 08:25:56;;;;;;;4.28;2.00;;;;;;;;;;4957757;28;20038;-81
2024/01/04 08:28:29;;;;;;;4.97;2.42;;;;;;;;;;4957929;28;20351;-81
2024/01/04 08:31:00;;;;;;;8.30;2.80;;;;;;;;;;4956501;28;20042;-81
2024/01/04 08:33:33;;;;;;;6.55;2.72;;;;;;;;;;4974265;28;20051;-83
2024/01/04 08:36:04;;;;;;;8.88;2.58;;;;;;;;;;4955912;28;20047;-82
2024/01/04 08:38:37;;;;;;;8.02;2.70;;;;;;;;;;4974877;28;20462;-81
2024/01/04 08:41:08;;;;;;;9.93;2.83;;;;;;;;;;4973782;28;20046;-82
2024/01/04 08:43:38;;;;;;;6.15;3.05;;;;;;;;;;4957795;28;20386;-83
2024/01/04 08:46:10;;;;;;;6.75;2.33;;;;;;;;;;4955894;28;20486;-81
2024/01/04 08:48:40;;;;;;;6.10;2.53;;;;;;;;;;4974353;28;20043;-84
2024/01/04 08:51:12;;;;;;;7.03;2.85;;;;;;;;;;4958262;28;20054;-82
2024/01/04 08:53:43;;;;;;;6.57;2.50;;;;;;;;;;4977657;28;20039;-82
2024/01/04 08:56:14;;;;;;;7.10;3.00;;;;;;;;;;4960463;28;20374;-81
2024/01/04 08:58:44;;;;;;;8.35;2.80;;;;;;;;;;4960721;28;20043;-81
2024/01/04 09:01:17;;;;;;;6.53;2.90;;;;;;;;;;4977799;28;20386;-81
2024/01/04 09:03:49;;;;;;;6.55;2.47;;;;;;;;;;4944680;28;20049;-81
2024/01/04 09:06:20;;;;;;;6.95;2.55;;;;;;;;;;4977921;28;20045;-82
2024/01/04 09:08:50;;;;;;;6.30;2.35;;;;;;;;;;4960748;28;20063;-81
2024/01/04 09:11:21;;;;;;;5.60;2.35;;;;;;;;;;4960041;28;20043;-81
2024/01/04 09:13:52;;;;;;;5.78;2.17;;;;;;;;;;4959290;28;20074;-81
2024/01/04 09:16:23;;;;;;;12.57;2.30;;;;;;;;;;4977452;28;20098;-81
2024/01/04 09:18:53;;;;;;;7.40;2.60;;;;;;;;;;4960322;28;20446;-81
2024/01/04 09:21:24;;;;;;;8.75;2.30;;;;;;;;;;4959681;28;20042;-82
2024/01/04 09:23:55;;;;;;;6.20;2.28;;;;;;;;;;4959523;28;20058;-82
2024/01/04 09:26:26;;;;;;;7.38;2.70;;;;;;;;;;4977270;28;20398;-81
2024/01/04 09:28:56;;;;;;;4.55;1.80;;;;;;;;;;4959253;28;20054;-81
2024/01/04 09:31:28;;;;;;;4.60;1.92;;;;;;;;;;4976962;28;20046;-81
2024/01/04 09:33:58;;;;;;;4.47;1.92;;;;;;;;;;4944878;28;20490;-81
2024/01/04 09:36:29;;;;;;;4.65;2.28;;;;;;;;;;4959443;28;20051;-82
2024/01/04 09:38:59;;;;;;;5.22;2.05;;;;;;;;;;4976769;28;20043;-82
2024/01/04 09:41:35;;;;;;;7.82;2.10;;;;;;;;;;4943480;28;20501;-81
2024/01/04 09:44:07;;;;;;;5.63;2.25;;;;;;;;;;4959107;28;20131;-82
2024/01/04 09:46:39;;;;;;;7.07;2.20;;;;;;;;;;4959068;28;20047;-81
2024/01/04 09:49:13;;;;;;;9.20;1.90;;;;;;;;;;4959468;28;20050;-81
2024/01/04 09:51:44;;;;;;;7.53;1.80;;;;;;;;;;4977413;28;20462;-81
2024/01/04 09:54:17;;;;;;;7.40;2.33;;;;;;;;;;4958586;28;20386;-81
2024/01/04 09:56:50;;;;;;;8.43;2.15;;;;;;;;;;4966653;28;20039;-81
2024/01/04 09:59:21;;;;;;;9.77;2.47;;;;;;;;;;4976477;28;20574;-81
2024/01/04 10:01:54;;;;;;;7.03;1.88;;;;;;;;;;4958320;28;20054;-81
2024/01/04 10:04:25;;;;;;;3.05;1.33;;;;;;;;;;4976316;28;20042;-81
2024/01/04 10:07:00;;;;;;;5.35;1.70;;;;;;;;;;4940522;29;20054;-81
2024/01/04 10:09:47;;;;;;;2.72;1.15;;;;;;;;;;4965284;28;20398;-81
2024/01/04 10:12:17;;;;;;;4.78;1.15;;;;;;;;;;4964450;28;20035;-83
2024/01/04 10:14:48;;;;;;;5.93;1.23;;;;;;;;;;4949871;28;20043;-84
2024/01/04 10:17:19;;;;;;;3.63;1.13;;;;;;;;;;4957795;28;20050;-81
2024/01/04 10:19:49;;;;;;;3.78;1.10;;;;;;;;;;4956879;28;20516;-83
2024/01/04 10:22:24;;;;;;;2.70;0.90;;;;;;;;;;4966104;28;20047;-81
2024/01/04 10:24:54;;;;;;;2.13;1.00;;;;;;;;;;4962049;28;20045;-81
2024/01/04 10:27:25;;;;;;;3.40;1.00;;;;;;;;;;4961609;28;20062;-84
2024/01/04 10:30:07;;;;;;;3.55;1.10;;;;;;;;;;4947157;29;20039;-82
2024/01/04 10:32:39;;;;;;;1.50;0.70;;;;;;;;;;4973835;28;20405;-82
2024/01/04 10:35:10;;;;;;;2.40;0.80;;;;;;;;;;4962101;28;20500;-84
2024/01/04 10:37:44;;;;;;;1.40;0.93;;;;;;;;;;4940675;28;20051;-81
2024/01/04 10:40:19;;;;;;;3.72;0.80;;;;;;;;;;4956882;28;20042;-81
2024/01/04 10:42:53;;;;;;;2.70;0.80;;;;;;;;;;4973989;28;20051;-82
2024/01/04 10:45:27;;;;;;;2.70;0.60;;;;;;;;;;4955314;28;20046;-82
2024/01/04 10:47:58;;;;;;;2.50;0.90;;;;;;;;;;4955393;28;20054;-83
2024/01/04 10:50:31;;;;;;;2.28;0.60;;;;;;;;;;4973406;28;20034;-84
2024/01/04 10:53:03;;;;;;;;;;;;;;;;;;4957002;28;20054;-84
2024/01/04 10:55:35;;;;;;;1.20;0.63;;;;;;;;;;4973594;28;20280;-85
2024/01/04 10:58:06;;;;;;;2.97;0.70;;;;;;;;;;4940092;28;20050;-85
2024/01/04 11:00:36;;;;;;;2.20;0.75;;;;;;;;;;4955726;28;20054;-83
2024/01/04 11:03:09;;;;;;;3.45;0.70;;;;;;;;;;4955039;28;20047;-84
2024/01/04 11:05:41;;;;;;;3.83;1.10;;;;;;;;;;4947295;29;20051;-85
2024/01/04 11:08:14;;;;;;;1.38;0.60;;;;;;;;;;4938961;29;20082;-85
2024/01/04 11:10:45;;;;;;;;;;;;;;;;;;4938827;29;20501;-86
2024/01/04 11:13:15;;;;;;;3.92;0.80;;;;;;;;;;4937762;29;20393;-86
2024/01/04 11:15:48;;;;;;;1.73;0.65;;;;;;;;;;4938946;29;20482;-83
2024/01/04 11:18:46;;;;;;;3.67;0.80;;;;;;;;;;4922585;29;20050;-84
2024/01/04 11:21:34;;;;;;;1.67;0.80;;;;;;;;;;4923346;29;20051;-85
2024/01/04 11:24:07;;;;;;;1.35;0.77;;;;;;;;;;4922429;28;20478;-83
2024/01/04 11:26:56;;;;;;;3.40;0.80;;;;;;;;;;4955657;28;20046;-86
2024/01/04 11:29:30;;;;;;;1.20;0.70;;;;;;;;;;4920626;29;20544;-84
2024/01/04 11:32:01;;;;;;;2.63;0.70;;;;;;;;;;4937436;29;20043;-86
2024/01/04 11:34:31;;;;;;;2.00;0.70;;;;;;;;;;4922568;28;20051;-85
2024/01/04 11:37:32;;;;;;;1.73;0.80;;;;;;;;;;4922345;29;20047;-85
2024/01/04 11:40:07;;;;;;;3.05;0.80;;;;;;;;;;4918786;29;20047;-86
2024/01/04 11:42:42;;;;;;;2.70;0.77;;;;;;;;;;4938919;28;20043;-85
2024/01/04 11:45:19;;;;;;;4.00;0.80;;;;;;;;;;4922840;29;20054;-86
2024/01/04 11:47:51;;;;;;;2.85;0.70;;;;;;;;;;4938268;29;20116;-86
2024/01/04 11:50:24;;;;;;;2.63;0.70;;;;;;;;;;4937655;29;20078;-86
2024/01/04 11:53:08;;;;;;;1.10;0.70;;;;;;;;;;4922663;29;20043;-87
2024/01/04 11:55:41;;;;;;;2.03;0.90;;;;;;;;;;4956133;28;20043;-89
2024/01/04 11:58:13;;;;;;;1.60;0.82;;;;;;;;;;4922266;29;20516;-84
2024/01/04 12:00:52;;;;;;;2.97;0.75;;;;;;;;;;4938196;29;20047;-86
2024/01/04 12:03:30;;;;;;;1.27;0.70;;;;;;;;;;4938886;28;20043;-89
2024/01/04 12:06:06;;;;;;;2.15;1.08;;;;;;;;;;4939090;29;20039;-86
2024/01/04 12:08:36;;;;;;;2.88;0.80;;;;;;;;;;4938304;29;20058;-86
2024/01/04 12:11:09;;;;;;;2.53;0.82;;;;;;;;;;4939028;29;20052;-87
2024/01/04 12:13:39;;;;;;;3.72;0.82;;;;;;;;;;4921615;29;20054;-86
2024/01/04 12:16:10;;;;;;;3.15;0.60;;;;;;;;;;4922302;29;20051;-86
2024/01/04 12:18:41;;;;;;;1.13;0.65;;;;;;;;;;4937525;29;20055;-87
2024/01/04 12:21:16;;;;;;;3.95;0.70;;;;;;;;;;4922997;29;20051;-87
2024/01/04 12:23:49;;;;;;;13.98;1.77;;;;;;;;;;4937007;29;20500;-85
2024/01/04 12:26:23;;;;;;;8.00;1.08;;;;;;;;;;4923969;29;20066;-85
2024/01/04 12:28:55;;;;;;;2.83;0.80;;;;;;;;;;4940668;29;20059;-85
2024/01/04 12:31:26;;;;;;;2.10;0.90;;;;;;;;;;4958856;28;20039;-89
2024/01/04 12:34:13;;;;;;;2.50;0.95;;;;;;;;;;4941357;29;20059;-86
2024/01/04 12:36:46;;;;;;;2.50;0.65;;;;;;;;;;4941162;28;20058;-85
2024/01/04 12:39:16;;;;;;;2.20;0.70;;;;;;;;;;4958963;28;20035;-85
2024/01/04 12:41:48;;;;;;;3.53;1.20;;;;;;;;;;4940715;29;20064;-86
2024/01/04 12:44:20;;;;;;;1.77;0.80;;;;;;;;;;4958900;28;20377;-85
2024/01/04 12:46:50;;;;;;;3.80;0.70;;;;;;;;;;4941117;29;20054;-85
2024/01/04 12:49:21;;;;;;;0.85;0.57;;;;;;;;;;4940298;28;20044;-84
2024/01/04 12:51:54;;;;;;;21.98;10.40;;;;;;;;;;4925252;29;20062;-86
2024/01/04 12:54:25;;;;;;;1.55;0.80;;;;;;;;;;4942550;29;20051;-86
2024/01/04 12:56:57;;;;;;;2.28;0.80;;;;;;;;;;4925472;29;20047;-86
2024/01/04 12:59:29;;;;;;;3.75;2.10;;;;;;;;;;4941711;29;20039;-85
2024/01/04 13:01:59;;;;;;;4.25;0.98;;;;;;;;;;4940951;29;20047;-87
2024/01/04 13:04:30;;;;;;;1.52;1.02;;;;;;;;;;4925773;29;20051;-86
2024/01/04 13:07:01;;;;;;;2.78;1.33;;;;;;;;;;4940435;29;20493;-84
2024/01/04 13:09:34;;;;;;;3.13;0.57;;;;;;;;;;4941328;29;20058;-87
2024/01/04 13:12:05;;;;;;;1.40;1.17;;;;;;;;;;4940430;29;20391;-88
2024/01/04 13:14:36;;;;;;;1.42;0.70;;;;;;;;;;4940077;29;20043;-87
2024/01/04 13:17:07;;;;;;;;;;;;;;;;;;4925393;29;20063;-87
2024/01/04 13:19:38;;;;;;;4.07;0.90;;;;;;;;;;4956859;28;19919;-87
2024/01/04 13:22:10;;;;;;;2.25;0.70;;;;;;;;;;4924954;29;20051;-86
2024/01/04 13:24:41;;;;;;;1.92;1.05;;;;;;;;;;4923076;29;20054;-83
2024/01/04 13:27:12;;;;;;;2.03;0.80;;;;;;;;;;4939778;29;20047;-81
2024/01/04 13:29:42;;;;;;;1.50;0.90;;;;;;;;;;4939543;29;20040;-83
2024/01/04 13:32:15;;;;;;;1.85;0.68;;;;;;;;;;4940013;29;20058;-83
2024/01/04 13:34:45;;;;;;;1.20;0.63;;;;;;;;;;4940583;29;20047;-84
2024/01/04 13:37:15;;;;;;;3.92;0.90;;;;;;;;;;4957172;28;20043;-84
2024/01/04 13:39:46;;;;;;;2.13;0.80;;;;;;;;;;4924578;29;20066;-83
2024/01/04 13:42:17;;;;;;;3.40;0.82;;;;;;;;;;4958102;29;20054;-83
2024/01/04 13:44:47;;;;;;;7.97;1.00;;;;;;;;;;4946465;28;20118;-84
2024/01/04 13:47:18;;;;;;;2.30;0.90;;;;;;;;;;4949811;28;20413;-83
2024/01/04 13:49:48;;;;;;;3.13;1.65;;;;;;;;;;4976640;28;20374;-84
2024/01/04 13:52:19;;;;;;;1.45;0.80;;;;;;;;;;4976488;28;20054;-83
2024/01/04 13:54:54;;;;;;;1.58;1.02;;;;;;;;;;4943650;28;20043;-85
2024/01/04 13:57:24;;;;;;;2.65;0.88;;;;;;;;;;4975512;28;20053;-82
2024/01/04 13:59:55;;;;;;;2.38;0.93;;;;;;;;;;4959427;28;20050;-84
2024/01/04 14:02:26;;;;;;;1.30;0.70;;;;;;;;;;4975832;28;20038;-85
2024/01/04 14:04:57;;;;;;;1.52;0.90;;;;;;;;;;4976468;28;20373;-85
2024/01/04 14:07:28;;;;;;;1.85;0.82;;;;;;;;;;4976831;28;20051;-83
2024/01/04 14:09:59;;;;;;;3.42;1.05;;;;;;;;;;4976679;28;20097;-83
2024/01/04 14:12:30;;;;;;;4.07;1.30;;;;;;;;;;4960361;28;20051;-82
2024/01/04 14:15:14;;;;;;;4.03;1.27;;;;;;;;;;4959894;28;20497;-85
2024/01/04 14:17:47;;;;;;;1.85;0.90;;;;;;;;;;4944591;28;20366;-85
2024/01/04 14:20:20;;;;;;;2.90;1.20;;;;;;;;;;4959020;28;20050;-86
2024/01/04 14:22:52;;;;;;;1.88;1.10;;;;;;;;;;4977058;28;20038;-84
2024/01/04 14:25:23;;;;;;;1.80;0.95;;;;;;;;;;4977053;28;20043;-85
2024/01/04 14:27:53;;;;;;;2.20;1.08;;;;;;;;;;4959072;28;20051;-83
2024/01/04 14:30:26;;;;;;;5.38;1.13;;;;;;;;;;4958559;28;20062;-83
2024/01/04 14:33:07;;;;;;;3.97;1.50;;;;;;;;;;4979209;28;20373;-86
2024/01/04 14:35:40;;;;;;;1.38;0.88;;;;;;;;;;4958298;28;20050;-82
2024/01/04 14:38:10;;;;;;;3.22;1.30;;;;;;;;;;4958370;28;20039;-82
2024/01/04 14:40:40;;;;;;;4.10;1.00;;;;;;;;;;4960097;28;20047;-84
2024/01/04 14:43:11;;;;;;;2.88;1.63;;;;;;;;;;4957580;28;20501;-82
2024/01/04 14:45:42;;;;;;;5.70;1.23;;;;;;;;;;4976747;28;20069;-83
2024/01/04 14:49:03;;;;;;;2.30;1.23;;;;;;;;;;4961269;28;20035;-85
2024/01/04 14:59:50;;;;;;;;;;;;;;;;;;4981963;28;20035;-86
2024/01/04 15:10:25;;;;;;;2.35;1.55;;;;;;;;;;4930409;29;20240;-86
2024/01/04 15:12:55;;;;;;;1.70;0.93;;;;;;;;;;4935661;29;20048;-82
2024/01/04 15:15:30;;;;;;;3.80;1.20;;;;;;;;;;4902796;29;20678;-87
2024/01/04 15:18:06;;;;;;;6.40;1.45;;;;;;;;;;4898739;29;20052;-88
2024/01/04 15:20:37;;;;;;;3.25;1.40;;;;;;;;;;4896749;29;20507;-84
2024/01/04 15:23:08;;;;;;;1.90;1.23;;;;;;;;;;4899561;29;20479;-83
2024/01/04 15:25:40;;;;;;;6.20;1.13;;;;;;;;;;4883468;29;20059;-84